sensor_id;sensor_type;location;lat;lon;timestamp;pressure;altitude;pressure_sealevel;temperature
19568;BMP280;9930;49.240;8.548;2023-04-25T00:01:36;99910.84;;;14.62
19568;BMP280;9930;49.240;8.548;2023-04-25T00:04:03;99896.19;;;14.53
19568;BMP280;9930;49.240;8.548;2023-04-25T00:06:35;99911.66;;;14.59
19568;BMP280;9930;49.240;8.548;2023-04-25T00:09:08;99888.41;;;14.48
19568;BMP280;9930;49.240;8.548;2023-04-25T00:11:35;99897.81;;;14.46
19568;BMP280;9930;49.240;8.548;2023-04-25T00:14:05;99895.22;;;14.46
19568;BMP280;9930;49.240;8.548;2023-04-25T00:16:34;99896.09;;;14.47
19568;BMP280;9930;49.240;8.548;2023-04-25T00:19:01;99893.50;;;14.45
19568;BMP280;9930;49.240;8.548;2023-04-25T00:21:27;99895.19;;;14.43
19568;BMP280;9930;49.240;8.548;2023-04-25T00:23:56;99900.41;;;14.49
19568;BMP280;9930;49.240;8.548;2023-04-25T00:26:24;99891.75;;;14.43
19568;BMP280;9930;49.240;8.548;2023-04-25T00:28:50;99905.53;;;14.49
19568;BMP280;9930;49.240;8.548;2023-04-25T00:31:19;99898.66;;;14.45
19568;BMP280;9930;49.240;8.548;2023-04-25T00:33:48;99894.31;;;14.43
19568;BMP280;9930;49.240;8.548;2023-04-25T00:36:15;99900.41;;;14.49
19568;BMP280;9930;49.240;8.548;2023-04-25T00:38:42;99890.84;;;14.41
19568;BMP280;9930;49.240;8.548;2023-04-25T00:41:10;99887.41;;;14.40
19568;BMP280;9930;49.240;8.548;2023-04-25T00:43:42;99906.34;;;14.47
19568;BMP280;9930;49.240;8.548;2023-04-25T00:46:10;99901.22;;;14.47
19568;BMP280;9930;49.240;8.548;2023-04-25T00:48:36;99896.09;;;14.47
19568;BMP280;9930;49.240;8.548;2023-04-25T00:51:02;99892.66;;;14.45
19568;BMP280;9930;49.240;8.548;2023-04-25T00:53:30;99888.34;;;14.44
19568;BMP280;9930;49.240;8.548;2023-04-25T00:55:58;99894.34;;;14.44
19568;BMP280;9930;49.240;8.548;2023-04-25T00:58:24;99876.28;;;14.38
19568;BMP280;9930;49.240;8.548;2023-04-25T01:00:51;99878.09;;;14.44
19568;BMP280;9930;49.240;8.548;2023-04-25T01:03:18;99884.94;;;14.43
19568;BMP280;9930;49.240;8.548;2023-04-25T01:05:49;99878.06;;;14.42
19568;BMP280;9930;49.240;8.548;2023-04-25T01:08:27;99865.13;;;14.36
19568;BMP280;9930;49.240;8.548;2023-04-25T01:10:53;99880.56;;;14.39
19568;BMP280;9930;49.240;8.548;2023-04-25T01:13:19;99876.28;;;14.40
19568;BMP280;9930;49.240;8.548;2023-04-25T01:15:45;99872.00;;;14.39
19568;BMP280;9930;49.240;8.548;2023-04-25T01:18:12;99869.41;;;14.36
19568;BMP280;9930;49.240;8.548;2023-04-25T01:20:41;99870.28;;;14.38
19568;BMP280;9930;49.240;8.548;2023-04-25T01:23:10;99850.47;;;14.26
19568;BMP280;9930;49.240;8.548;2023-04-25T01:25:39;99863.41;;;14.35
19568;BMP280;9930;49.240;8.548;2023-04-25T01:28:05;99857.34;;;14.30
19568;BMP280;9930;49.240;8.548;2023-04-25T01:30:34;99859.06;;;14.30
19568;BMP280;9930;49.240;8.548;2023-04-25T01:33:01;99859.91;;;14.29
19568;BMP280;9930;49.240;8.548;2023-04-25T01:35:29;99859.84;;;14.25
19568;BMP280;9930;49.240;8.548;2023-04-25T01:38:00;99864.97;;;14.24
19568;BMP280;9930;49.240;8.548;2023-04-25T01:40:27;99872.75;;;14.30
19568;BMP280;9930;49.240;8.548;2023-04-25T01:42:55;99862.38;;;14.22
19568;BMP280;9930;49.240;8.548;2023-04-25T01:45:21;99869.25;;;14.25
19568;BMP280;9930;49.240;8.548;2023-04-25T01:47:52;99875.25;;;14.27
19568;BMP280;9930;49.240;8.548;2023-04-25T01:50:19;99868.31;;;14.18
19568;BMP280;9930;49.240;8.548;2023-04-25T01:52:53;99882.97;;;14.27
19568;BMP280;9930;49.240;8.548;2023-04-25T01:55:19;99875.25;;;14.25
19568;BMP280;9930;49.240;8.548;2023-04-25T01:57:48;99872.66;;;14.24
19568;BMP280;9930;49.240;8.548;2023-04-25T02:00:17;99877.78;;;14.24
19568;BMP280;9930;49.240;8.548;2023-04-25T02:02:49;99867.44;;;14.18
19568;BMP280;9930;49.240;8.548;2023-04-25T02:05:17;99870.88;;;14.20
19568;BMP280;9930;49.240;8.548;2023-04-25T02:07:42;99876.94;;;14.25
19568;BMP280;9930;49.240;8.548;2023-04-25T02:10:09;99876.94;;;14.25
19568;BMP280;9930;49.240;8.548;2023-04-25T02:12:36;99877.78;;;14.24
19568;BMP280;9930;49.240;8.548;2023-04-25T02:15:02;99870.91;;;14.21
19568;BMP280;9930;49.240;8.548;2023-04-25T02:17:28;99874.34;;;14.22
19568;BMP280;9930;49.240;8.548;2023-04-25T02:19:53;99869.19;;;14.20
19568;BMP280;9930;49.240;8.548;2023-04-25T02:22:22;99870.88;;;14.20
19568;BMP280;9930;49.240;8.548;2023-04-25T02:24:56;99870.03;;;14.19
19568;BMP280;9930;49.240;8.548;2023-04-25T02:27:26;99853.66;;;14.10
19568;BMP280;9930;49.240;8.548;2023-04-25T02:29:51;99857.06;;;14.09
19568;BMP280;9930;49.240;8.548;2023-04-25T02:32:17;99860.47;;;14.08
19568;BMP280;9930;49.240;8.548;2023-04-25T02:34:48;99865.69;;;14.14
19568;BMP280;9930;49.240;8.548;2023-04-25T02:37:15;99872.50;;;14.13
19568;BMP280;9930;49.240;8.548;2023-04-25T02:39:43;99857.00;;;14.06
19568;BMP280;9930;49.240;8.548;2023-04-25T02:42:12;99868.22;;;14.12
19568;BMP280;9930;49.240;8.548;2023-04-25T02:44:38;99851.00;;;14.04
19568;BMP280;9930;49.240;8.548;2023-04-25T02:47:10;99864.75;;;14.10
19568;BMP280;9930;49.240;8.548;2023-04-25T02:49:36;99864.75;;;14.09
19568;BMP280;9930;49.240;8.548;2023-04-25T02:52:01;99847.53;;;14.02
19568;BMP280;9930;49.240;8.548;2023-04-25T02:54:27;99853.50;;;14.01
19568;BMP280;9930;49.240;8.548;2023-04-25T02:56:53;99864.75;;;14.09
19568;BMP280;9930;49.240;8.548;2023-04-25T02:59:18;99846.69;;;14.01
19568;BMP280;9930;49.240;8.548;2023-04-25T03:01:47;99863.91;;;14.10
19568;BMP280;9930;49.240;8.548;2023-04-25T03:04:12;99858.78;;;14.10
19568;BMP280;9930;49.240;8.548;2023-04-25T03:06:40;99856.22;;;14.10
19568;BMP280;9930;49.240;8.548;2023-04-25T03:09:07;99843.28;;;14.02
19568;BMP280;9930;49.240;8.548;2023-04-25T03:11:33;99859.63;;;14.10
19568;BMP280;9930;49.240;8.548;2023-04-25T03:13:58;99853.66;;;14.10
19568;BMP280;9930;49.240;8.548;2023-04-25T03:16:29;99847.56;;;14.03
19568;BMP280;9930;49.240;8.548;2023-04-25T03:18:55;99856.22;;;14.10
19568;BMP280;9930;49.240;8.548;2023-04-25T03:21:20;99846.72;;;14.03
19568;BMP280;9930;49.240;8.548;2023-04-25T03:23:48;99849.25;;;14.01
19568;BMP280;9930;49.240;8.548;2023-04-25T03:26:19;99854.47;;;14.07
19568;BMP280;9930;49.240;8.548;2023-04-25T03:28:49;99863.03;;;14.09
19568;BMP280;9930;49.240;8.548;2023-04-25T03:31:18;99850.13;;;14.03
19568;BMP280;9930;49.240;8.548;2023-04-25T03:33:43;99857.91;;;14.09
19568;BMP280;9930;49.240;8.548;2023-04-25T03:36:12;99857.06;;;14.09
19568;BMP280;9930;49.240;8.548;2023-04-25T03:38:37;99829.59;;;14.02
19568;BMP280;9930;49.240;8.548;2023-04-25T03:41:07;99852.75;;;14.08
19568;BMP280;9930;49.240;8.548;2023-04-25T03:43:33;99853.59;;;14.07
19568;BMP280;9930;49.240;8.548;2023-04-25T03:46:00;99840.66;;;13.99
19568;BMP280;9930;49.240;8.548;2023-04-25T03:48:29;99850.19;;;14.06
19568;BMP280;9930;49.240;8.548;2023-04-25T03:50:54;99853.59;;;14.07
19568;BMP280;9930;49.240;8.548;2023-04-25T03:53:21;99856.16;;;14.07
19568;BMP280;9930;49.240;8.548;2023-04-25T03:55:53;99850.09;;;14.00
19568;BMP280;9930;49.240;8.548;2023-04-25T03:58:21;99842.34;;;13.97
19568;BMP280;9930;49.240;8.548;2023-04-25T04:00:54;99857.00;;;14.04
19568;BMP280;9930;49.240;8.548;2023-04-25T04:03:19;99838.94;;;13.97
19568;BMP280;9930;49.240;8.548;2023-04-25T04:05:46;99851.84;;;14.03
19568;BMP280;9930;49.240;8.548;2023-04-25T04:08:18;99841.50;;;13.98
19568;BMP280;9930;49.240;8.548;2023-04-25T04:10:47;99848.38;;;14.01
19568;BMP280;9930;49.240;8.548;2023-04-25T04:13:13;99853.50;;;14.01
19568;BMP280;9930;49.240;8.548;2023-04-25T04:15:38;99849.19;;;13.98
19568;BMP280;9930;49.240;8.548;2023-04-25T04:18:04;99859.47;;;14.00
19568;BMP280;9930;49.240;8.548;2023-04-25T04:20:30;99842.28;;;13.92
19568;BMP280;9930;49.240;8.548;2023-04-25T04:22:56;99850.84;;;13.94
19568;BMP280;9930;49.240;8.548;2023-04-25T04:25:21;99843.97;;;13.90
19568;BMP280;9930;49.240;8.548;2023-04-25T04:27:52;99865.44;;;13.99
19568;BMP280;9930;49.240;8.548;2023-04-25T04:30:24;99862.88;;;13.99
19568;BMP280;9930;49.240;8.548;2023-04-25T04:32:56;99852.56;;;13.94
19568;BMP280;9930;49.240;8.548;2023-04-25T04:35:23;99862.88;;;13.99
19568;BMP280;9930;49.240;8.548;2023-04-25T04:37:49;99844.81;;;13.89
19568;BMP280;9930;49.240;8.548;2023-04-25T04:40:16;99849.97;;;13.92
19568;BMP280;9930;49.240;8.548;2023-04-25T04:42:43;99862.03;;;13.98
19568;BMP280;9930;49.240;8.548;2023-04-25T04:45:12;99868.03;;;14.00
19568;BMP280;9930;49.240;8.548;2023-04-25T04:47:40;99864.53;;;13.95
19568;BMP280;9930;49.240;8.548;2023-04-25T04:50:07;99868.88;;;13.99
19568;BMP280;9930;49.240;8.548;2023-04-25T04:52:38;99880.00;;;14.01
19568;BMP280;9930;49.240;8.548;2023-04-25T04:55:14;99878.28;;;14.00
19568;BMP280;9930;49.240;8.548;2023-04-25T04:57:42;99869.63;;;13.92
19568;BMP280;9930;49.240;8.548;2023-04-25T05:00:11;99873.16;;;14.00
19568;BMP280;9930;49.240;8.548;2023-04-25T05:02:38;99860.25;;;13.94
19568;BMP280;9930;49.240;8.548;2023-04-25T05:05:09;99874.81;;;13.97
19568;BMP280;9930;49.240;8.548;2023-04-25T05:07:35;99875.78;;;14.03
19568;BMP280;9930;49.240;8.548;2023-04-25T05:10:07;99882.66;;;14.06
19568;BMP280;9930;49.240;8.548;2023-04-25T05:12:33;99880.94;;;14.06
19568;BMP280;9930;49.240;8.548;2023-04-25T05:15:01;99868.91;;;14.02
19568;BMP280;9930;49.240;8.548;2023-04-25T05:17:29;99875.81;;;14.06
19568;BMP280;9930;49.240;8.548;2023-04-25T05:19:55;99880.13;;;14.09
19568;BMP280;9930;49.240;8.548;2023-04-25T05:22:23;99879.25;;;14.07
19568;BMP280;9930;49.240;8.548;2023-04-25T05:24:51;99888.78;;;14.15
19568;BMP280;9930;49.240;8.548;2023-04-25T05:27:22;99887.97;;;14.18
19568;BMP280;9930;49.240;8.548;2023-04-25T05:29:50;99881.09;;;14.17
19568;BMP280;9930;49.240;8.548;2023-04-25T05:32:21;99879.38;;;14.16
19568;BMP280;9930;49.240;8.548;2023-04-25T05:34:49;99883.72;;;14.21
19568;BMP280;9930;49.240;8.548;2023-04-25T05:37:19;99888.97;;;14.29
19568;BMP280;9930;49.240;8.548;2023-04-25T05:39:47;99897.56;;;14.31
19568;BMP280;9930;49.240;8.548;2023-04-25T05:42:46;99899.31;;;14.34
19568;BMP280;9930;49.240;8.548;2023-04-25T05:45:18;99906.19;;;14.36
19568;BMP280;9930;49.240;8.548;2023-04-25T05:47:46;99893.31;;;14.33
19568;BMP280;9930;49.240;8.548;2023-04-25T05:50:12;99895.06;;;14.36
19568;BMP280;9930;49.240;8.548;2023-04-25T05:52:41;99902.94;;;14.46
19568;BMP280;9930;49.240;8.548;2023-04-25T05:55:07;99903.84;;;14.50
19568;BMP280;9930;49.240;8.548;2023-04-25T05:57:33;99897.88;;;14.52
19568;BMP280;9930;49.240;8.548;2023-04-25T05:59:58;99900.47;;;14.54
19568;BMP280;9930;49.240;8.548;2023-04-25T06:02:24;99909.09;;;14.59
19568;BMP280;9930;49.240;8.548;2023-04-25T06:04:50;99897.09;;;14.58
19568;BMP280;9930;49.240;8.548;2023-04-25T06:07:19;99918.59;;;14.66
19568;BMP280;9930;49.240;8.548;2023-04-25T06:09:48;99917.75;;;14.67
19568;BMP280;9930;49.240;8.548;2023-04-25T06:12:18;99898.91;;;14.65
19568;BMP280;9930;49.240;8.548;2023-04-25T06:14:44;99911.84;;;14.73
19568;BMP280;9930;49.240;8.548;2023-04-25T06:17:13;99923.06;;;14.81
19568;BMP280;9930;49.240;8.548;2023-04-25T06:19:39;99926.50;;;14.83
19568;BMP280;9930;49.240;8.548;2023-04-25T06:22:09;99911.88;;;14.76
19568;BMP280;9930;49.240;8.548;2023-04-25T06:24:35;99925.66;;;14.84
19568;BMP280;9930;49.240;8.548;2023-04-25T06:27:01;99928.25;;;14.84
19568;BMP280;9930;49.240;8.548;2023-04-25T06:29:27;99918.72;;;14.77
19568;BMP280;9930;49.240;8.548;2023-04-25T06:31:52;99917.06;;;14.80
19568;BMP280;9930;49.240;8.548;2023-04-25T06:34:19;99928.25;;;14.84
19568;BMP280;9930;49.240;8.548;2023-04-25T06:36:47;99927.41;;;14.86
19568;BMP280;9930;49.240;8.548;2023-04-25T06:39:16;99935.16;;;14.91
19568;BMP280;9930;49.240;8.548;2023-04-25T06:41:42;99919.69;;;14.85
19568;BMP280;9930;49.240;8.548;2023-04-25T06:44:08;99918.91;;;14.90
19568;BMP280;9930;49.240;8.548;2023-04-25T06:46:33;99926.75;;;15.01
19568;BMP280;9930;49.240;8.548;2023-04-25T06:48:59;99922.50;;;15.05
19568;BMP280;9930;49.240;8.548;2023-04-25T06:51:27;99921.72;;;15.10
19568;BMP280;9930;49.240;8.548;2023-04-25T06:53:55;99931.25;;;15.22
19568;BMP280;9930;49.240;8.548;2023-04-25T06:56:20;99929.53;;;15.21
19568;BMP280;9930;49.240;8.548;2023-04-25T06:58:50;99938.22;;;15.34
19568;BMP280;9930;49.240;8.548;2023-04-25T07:01:19;99925.34;;;15.29
19568;BMP280;9930;49.240;8.548;2023-04-25T07:03:51;99924.50;;;15.30
19568;BMP280;9930;49.240;8.548;2023-04-25T07:06:17;99932.25;;;15.35
19568;BMP280;9930;49.240;8.548;2023-04-25T07:08:49;99927.91;;;15.29
19568;BMP280;9930;49.240;8.548;2023-04-25T07:11:16;99923.59;;;15.27
19568;BMP280;9930;49.240;8.548;2023-04-25T07:13:42;99933.94;;;15.31
19568;BMP280;9930;49.240;8.548;2023-04-25T07:16:10;99934.75;;;15.27
19568;BMP280;9930;49.240;8.548;2023-04-25T07:18:38;99928.69;;;15.22
19568;BMP280;9930;49.240;8.548;2023-04-25T07:21:06;99918.34;;;15.16
19568;BMP280;9930;49.240;8.548;2023-04-25T07:23:34;99941.56;;;15.25
19568;BMP280;9930;49.240;8.548;2023-04-25T07:26:00;99926.94;;;15.18
19568;BMP280;9930;49.240;8.548;2023-04-25T07:28:29;99929.50;;;15.19
19568;BMP280;9930;49.240;8.548;2023-04-25T07:30:57;99942.47;;;15.30
19568;BMP280;9930;49.240;8.548;2023-04-25T07:33:27;99931.28;;;15.25
19568;BMP280;9930;49.240;8.548;2023-04-25T07:35:55;99952.81;;;15.36
19568;BMP280;9930;49.240;8.548;2023-04-25T07:38:24;99931.34;;;15.30
19568;BMP280;9930;49.240;8.548;2023-04-25T07:40:51;99936.44;;;15.27
19568;BMP280;9930;49.240;8.548;2023-04-25T07:43:22;99939.00;;;15.27
19568;BMP280;9930;49.240;8.548;2023-04-25T07:45:52;99957.06;;;15.33
19568;BMP280;9930;49.240;8.548;2023-04-25T07:48:19;99961.31;;;15.31
19568;BMP280;9930;49.240;8.548;2023-04-25T07:50:47;99962.91;;;15.18
19568;BMP280;9930;49.240;8.548;2023-04-25T07:53:13;99949.81;;;14.98
19568;BMP280;9930;49.240;8.548;2023-04-25T07:55:38;99974.59;;;14.96
19568;BMP280;9930;49.240;8.548;2023-04-25T07:58:09;99983.91;;;14.86
19568;BMP280;9930;49.240;8.548;2023-04-25T08:00:36;99982.03;;;14.75
19568;BMP280;9930;49.240;8.548;2023-04-25T08:03:04;99978.47;;;14.65
19568;BMP280;9930;49.240;8.548;2023-04-25T08:05:33;99997.13;;;14.55
19568;BMP280;9930;49.240;8.548;2023-04-25T08:07:59;99981.47;;;14.38
19568;BMP280;9930;49.240;8.548;2023-04-25T08:10:27;99985.66;;;14.33
19568;BMP280;9930;49.240;8.548;2023-04-25T08:12:53;100004.50;;;14.35
19568;BMP280;9930;49.240;8.548;2023-04-25T08:15:21;100011.34;;;14.35
19568;BMP280;9930;49.240;8.548;2023-04-25T08:17:49;100013.94;;;14.38
19568;BMP280;9930;49.240;8.548;2023-04-25T08:20:15;100015.66;;;14.37
19568;BMP280;9930;49.240;8.548;2023-04-25T08:22:43;100022.47;;;14.35
19568;BMP280;9930;49.240;8.548;2023-04-25T08:25:12;100028.44;;;14.36
19568;BMP280;9930;49.240;8.548;2023-04-25T08:27:37;100036.22;;;14.40
19568;BMP280;9930;49.240;8.548;2023-04-25T08:30:04;100021.66;;;14.39
19568;BMP280;9930;49.240;8.548;2023-04-25T08:32:34;100029.53;;;14.47
19568;BMP280;9930;49.240;8.548;2023-04-25T08:35:03;100039.94;;;14.56
19568;BMP280;9930;49.240;8.548;2023-04-25T08:37:31;100048.59;;;14.64
19568;BMP280;9930;49.240;8.548;2023-04-25T08:39:57;100046.09;;;14.69
19568;BMP280;9930;49.240;8.548;2023-04-25T08:42:29;100053.88;;;14.73
19568;BMP280;9930;49.240;8.548;2023-04-25T08:45:01;100059.00;;;14.73
19568;BMP280;9930;49.240;8.548;2023-04-25T08:47:29;100060.81;;;14.79
19568;BMP280;9930;49.240;8.548;2023-04-25T08:49:56;100057.44;;;14.81
19568;BMP280;9930;49.240;8.548;2023-04-25T08:52:30;100049.72;;;14.81
19568;BMP280;9930;49.240;8.548;2023-04-25T08:55:00;100067.00;;;14.93
19568;BMP280;9930;49.240;8.548;2023-04-25T08:57:29;100071.44;;;15.03
19568;BMP280;9930;49.240;8.548;2023-04-25T08:59:57;100067.19;;;15.05
19568;BMP280;9930;49.240;8.548;2023-04-25T09:02:24;100079.38;;;15.21
19568;BMP280;9930;49.240;8.548;2023-04-25T09:04:50;100077.72;;;15.25
19568;BMP280;9930;49.240;8.548;2023-04-25T09:07:19;100071.78;;;15.29
19568;BMP280;9930;49.240;8.548;2023-04-25T09:09:47;100083.13;;;15.45
19568;BMP280;9930;49.240;8.548;2023-04-25T09:12:13;100089.25;;;15.56
19568;BMP280;9930;49.240;8.548;2023-04-25T09:14:39;100094.53;;;15.67
19568;BMP280;9930;49.240;8.548;2023-04-25T09:17:07;100095.44;;;15.72
19568;BMP280;9930;49.240;8.548;2023-04-25T09:19:39;100092.97;;;15.79
19568;BMP280;9930;49.240;8.548;2023-04-25T09:22:06;100102.44;;;15.83
19568;BMP280;9930;49.240;8.548;2023-04-25T09:24:36;100106.72;;;15.83
19568;BMP280;9930;49.240;8.548;2023-04-25T09:27:13;100090.41;;;15.79
19568;BMP280;9930;49.240;8.548;2023-04-25T09:29:48;100103.25;;;15.79
19568;BMP280;9930;49.240;8.548;2023-04-25T09:32:26;100104.13;;;15.81
19568;BMP280;9930;49.240;8.548;2023-04-25T09:34:56;100110.25;;;15.93
19568;BMP280;9930;49.240;8.548;2023-04-25T09:37:28;100115.50;;;16.02
19568;BMP280;9930;49.240;8.548;2023-04-25T09:40:06;100114.69;;;16.07
19568;BMP280;9930;49.240;8.548;2023-04-25T09:42:35;100126.69;;;16.07
19568;BMP280;9930;49.240;8.548;2023-04-25T09:45:03;100129.34;;;16.14
19568;BMP280;9930;49.240;8.548;2023-04-25T09:47:37;100132.00;;;16.20
19568;BMP280;9930;49.240;8.548;2023-04-25T09:50:14;100128.56;;;16.22
19568;BMP280;9930;49.240;8.548;2023-04-25T09:52:41;100131.25;;;16.34
19568;BMP280;9930;49.240;8.548;2023-04-25T09:55:10;100136.50;;;16.41
19568;BMP280;9930;49.240;8.548;2023-04-25T09:57:41;100134.00;;;16.49
19568;BMP280;9930;49.240;8.548;2023-04-25T10:00:09;100116.84;;;16.51
19568;BMP280;9930;49.240;8.548;2023-04-25T10:02:42;100127.22;;;16.62
19568;BMP280;9930;49.240;8.548;2023-04-25T10:05:11;100124.72;;;16.66
19568;BMP280;9930;49.240;8.548;2023-04-25T10:07:37;100132.53;;;16.74
19568;BMP280;9930;49.240;8.548;2023-04-25T10:10:07;100139.50;;;16.89
19568;BMP280;9930;49.240;8.548;2023-04-25T10:12:34;100137.78;;;16.89
19568;BMP280;9930;49.240;8.548;2023-04-25T10:15:34;100137.81;;;16.94
19568;BMP280;9930;49.240;8.548;2023-04-25T10:18:09;100142.13;;;16.96
19568;BMP280;9930;49.240;8.548;2023-04-25T10:20:37;100155.09;;;17.08
19568;BMP280;9930;49.240;8.548;2023-04-25T10:23:13;100162.84;;;17.08
19568;BMP280;9930;49.240;8.548;2023-04-25T10:25:43;100162.81;;;17.07
19568;BMP280;9930;49.240;8.548;2023-04-25T10:28:14;100167.13;;;17.06
19568;BMP280;9930;49.240;8.548;2023-04-25T10:31:00;100164.53;;;17.03
19568;BMP280;9930;49.240;8.548;2023-04-25T10:33:39;100151.59;;;16.97
19568;BMP280;9930;49.240;8.548;2023-04-25T10:36:17;100156.75;;;16.97
19568;BMP280;9930;49.240;8.548;2023-04-25T10:38:47;100155.88;;;16.95
19568;BMP280;9930;49.240;8.548;2023-04-25T10:41:19;100169.63;;;16.99
19568;BMP280;9930;49.240;8.548;2023-04-25T10:43:49;100156.69;;;16.90
19568;BMP280;9930;49.240;8.548;2023-04-25T10:46:28;100161.84;;;16.93
19568;BMP280;9930;49.240;8.548;2023-04-25T10:48:59;100163.53;;;16.88
19568;BMP280;9930;49.240;8.548;2023-04-25T10:51:35;100175.59;;;16.93
19568;BMP280;9930;49.240;8.548;2023-04-25T10:54:07;100173.81;;;16.86
19568;BMP280;9930;49.240;8.548;2023-04-25T10:56:38;100178.16;;;16.92
19568;BMP280;9930;49.240;8.548;2023-04-25T10:59:14;100181.66;;;16.98
19568;BMP280;9930;49.240;8.548;2023-04-25T11:01:48;100169.66;;;17.00
19568;BMP280;9930;49.240;8.548;2023-04-25T11:04:44;100186.03;;;17.08
19568;BMP280;9930;49.240;8.548;2023-04-25T11:07:17;100162.78;;;17.01
19568;BMP280;9930;49.240;8.548;2023-04-25T11:09:50;100176.56;;;17.07
19568;BMP280;9930;49.240;8.548;2023-04-25T11:12:16;100185.19;;;17.11
19568;BMP280;9930;49.240;8.548;2023-04-25T11:14:43;100192.97;;;17.19
19568;BMP280;9930;49.240;8.548;2023-04-25T11:17:09;100192.97;;;17.17
19568;BMP280;9930;49.240;8.548;2023-04-25T11:19:38;100201.59;;;17.22
19568;BMP280;9930;49.240;8.548;2023-04-25T11:22:04;100186.94;;;17.16
19568;BMP280;9930;49.240;8.548;2023-04-25T11:24:33;100179.22;;;17.20
19568;BMP280;9930;49.240;8.548;2023-04-25T11:27:03;100191.28;;;17.24
19568;BMP280;9930;49.240;8.548;2023-04-25T11:29:32;100199.94;;;17.30
19568;BMP280;9930;49.240;8.548;2023-04-25T11:31:59;100200.78;;;17.29
19568;BMP280;9930;49.240;8.548;2023-04-25T11:34:27;100190.41;;;17.19
19568;BMP280;9930;49.240;8.548;2023-04-25T11:36:56;100193.03;;;17.28
19568;BMP280;9930;49.240;8.548;2023-04-25T11:39:24;100196.50;;;17.33
19568;BMP280;9930;49.240;8.548;2023-04-25T11:41:50;100198.22;;;17.34
19568;BMP280;9930;49.240;8.548;2023-04-25T11:44:23;100209.47;;;17.45
19568;BMP280;9930;49.240;8.548;2023-04-25T11:46:51;100197.44;;;17.44
19568;BMP280;9930;49.240;8.548;2023-04-25T11:49:19;100215.56;;;17.53
19568;BMP280;9930;49.240;8.548;2023-04-25T11:51:49;100209.56;;;17.57
19568;BMP280;9930;49.240;8.548;2023-04-25T11:54:19;100200.97;;;17.57
19568;BMP280;9930;49.240;8.548;2023-04-25T11:56:47;100208.81;;;17.72
19568;BMP280;9930;49.240;8.548;2023-04-25T11:59:23;100213.19;;;17.88
19568;BMP280;9930;49.240;8.548;2023-04-25T12:01:50;100209.78;;;17.97
19568;BMP280;9930;49.240;8.548;2023-04-25T12:04:23;100212.41;;;18.07
19568;BMP280;9930;49.240;8.548;2023-04-25T12:06:52;100209.00;;;18.13
19568;BMP280;9930;49.240;8.548;2023-04-25T12:09:30;100220.19;;;18.15
19568;BMP280;9930;49.240;8.548;2023-04-25T12:11:59;100216.72;;;18.10
19568;BMP280;9930;49.240;8.548;2023-04-25T12:14:31;100221.88;;;18.10
19568;BMP280;9930;49.240;8.548;2023-04-25T12:17:02;100221.88;;;18.02
19568;BMP280;9930;49.240;8.548;2023-04-25T12:19:37;100229.56;;;17.95
19568;BMP280;9930;49.240;8.548;2023-04-25T12:22:21;100231.25;;;17.85
19568;BMP280;9930;49.240;8.548;2023-04-25T12:24:47;100215.69;;;17.73
19568;BMP280;9930;49.240;8.548;2023-04-25T12:27:16;100218.31;;;17.77
19568;BMP280;9930;49.240;8.548;2023-04-25T12:29:54;100214.88;;;17.82
19568;BMP280;9930;49.240;8.548;2023-04-25T12:32:24;100229.53;;;17.90
19568;BMP280;9930;49.240;8.548;2023-04-25T12:34:50;100215.75;;;17.84
19568;BMP280;9930;49.240;8.548;2023-04-25T12:37:16;100225.22;;;17.88
19568;BMP280;9930;49.240;8.548;2023-04-25T12:39:42;100226.94;;;17.86
19568;BMP280;9930;49.240;8.548;2023-04-25T12:42:08;100232.97;;;17.85
19568;BMP280;9930;49.240;8.548;2023-04-25T12:44:37;100227.75;;;17.78
19568;BMP280;9930;49.240;8.548;2023-04-25T12:47:04;100223.44;;;17.73
19568;BMP280;9930;49.240;8.548;2023-04-25T12:49:31;100221.69;;;17.69
19568;BMP280;9930;49.240;8.548;2023-04-25T12:51:57;100236.34;;;17.74
19568;BMP280;9930;49.240;8.548;2023-04-25T12:54:23;100238.94;;;17.76
19568;BMP280;9930;49.240;8.548;2023-04-25T12:56:52;100243.25;;;17.80
19568;BMP280;9930;49.240;8.548;2023-04-25T12:59:19;100246.75;;;17.88
19568;BMP280;9930;49.240;8.548;2023-04-25T13:01:47;100237.31;;;17.93
19568;BMP280;9930;49.240;8.548;2023-04-25T13:04:21;100245.09;;;18.04
19568;BMP280;9930;49.240;8.548;2023-04-25T13:06:48;100238.22;;;18.09
19568;BMP280;9930;49.240;8.548;2023-04-25T13:09:16;100242.59;;;18.21
19568;BMP280;9930;49.240;8.548;2023-04-25T13:11:42;100244.31;;;18.25
19568;BMP280;9930;49.240;8.548;2023-04-25T13:14:08;100231.41;;;18.25
19568;BMP280;9930;49.240;8.548;2023-04-25T13:16:33;100250.38;;;18.30
19568;BMP280;9930;49.240;8.548;2023-04-25T13:18:59;100235.72;;;18.23
19568;BMP280;9930;49.240;8.548;2023-04-25T13:21:25;100242.59;;;18.24
19568;BMP280;9930;49.240;8.548;2023-04-25T13:23:52;100243.44;;;18.20
19568;BMP280;9930;49.240;8.548;2023-04-25T13:26:18;100252.03;;;18.14
19568;BMP280;9930;49.240;8.548;2023-04-25T13:28:43;100252.00;;;18.08
19568;BMP280;9930;49.240;8.548;2023-04-25T13:31:11;100256.28;;;18.03
19568;BMP280;9930;49.240;8.548;2023-04-25T13:33:37;100250.22;;;17.98
19568;BMP280;9930;49.240;8.548;2023-04-25T13:36:05;100251.94;;;17.99
19568;BMP280;9930;49.240;8.548;2023-04-25T13:38:31;100248.53;;;18.03
19568;BMP280;9930;49.240;8.548;2023-04-25T13:40:59;100246.00;;;18.10
19568;BMP280;9930;49.240;8.548;2023-04-25T13:43:26;100240.84;;;18.18
19568;BMP280;9930;49.240;8.548;2023-04-25T13:45:52;100241.72;;;18.17
19568;BMP280;9930;49.240;8.548;2023-04-25T13:48:19;100220.16;;;18.06
19568;BMP280;9930;49.240;8.548;2023-04-25T13:50:50;100243.47;;;18.24
19568;BMP280;9930;49.240;8.548;2023-04-25T13:53:19;100240.03;;;18.30
19568;BMP280;9930;49.240;8.548;2023-04-25T13:55:44;100235.72;;;18.26
19568;BMP280;9930;49.240;8.548;2023-04-25T13:58:11;100239.19;;;18.29
19568;BMP280;9930;49.240;8.548;2023-04-25T14:00:38;100249.50;;;18.29
19568;BMP280;9930;49.240;8.548;2023-04-25T14:03:04;100251.22;;;18.27
19568;BMP280;9930;49.240;8.548;2023-04-25T14:05:35;100254.69;;;18.32
19568;BMP280;9930;49.240;8.548;2023-04-25T14:08:08;100244.34;;;18.29
19568;BMP280;9930;49.240;8.548;2023-04-25T14:10:35;100241.78;;;18.34
19568;BMP280;9930;49.240;8.548;2023-04-25T14:13:01;100232.31;;;18.33
19568;BMP280;9930;49.240;8.548;2023-04-25T14:15:30;100246.09;;;18.41
19568;BMP280;9930;49.240;8.548;2023-04-25T14:17:59;100261.63;;;18.52
19568;BMP280;9930;49.240;8.548;2023-04-25T14:20:28;100254.72;;;18.51
19568;BMP280;9930;49.240;8.548;2023-04-25T14:22:58;100259.91;;;18.49
19568;BMP280;9930;49.240;8.548;2023-04-25T14:25:25;100258.16;;;18.48